Time;durP1;ratioP1;P1;durP2;ratioP2;P2;SDS_P1;SDS_P2;PMS_P1;PMS_P2;Temp;Humidity;BMP_temperature;BMP_pressure;BME280_temperature;BME280_humidity;BME280_pressure;Samples;Min_cycle;Max_cycle;Signal;HPM_P1;HPM_P2
2022/07/08 00:01:56;;;;;;;;;;;;;;;;;;5156796;27;19915;-84
2022/07/08 00:04:22;;;;;;;;;;;;;;;;;;5156295;27;19942;-85
2022/07/08 00:06:47;;;;;;;;;;;;;;;;;;5137662;27;19922;-84
2022/07/08 00:09:13;;;;;;;;;;;;;;;;;;5156340;27;19976;-84
2022/07/08 00:11:40;;;;;;;;;;;;;;;;;;5156550;27;20037;-84
2022/07/08 00:14:05;;;;;;;;;;;;;;;;;;5158336;27;20029;-84
2022/07/08 00:16:31;;;;;;;;;;;;;;;;;;5141943;27;20386;-85
2022/07/08 00:18:56;;;;;;;;;;;;;;;;;;5141644;27;19915;-84
2022/07/08 00:21:22;;;;;;;;;;;;;;;;;;5160167;27;20435;-84
2022/07/08 00:23:47;;;;;;;;;;;;;;;;;;5141881;27;19922;-84
2022/07/08 00:26:13;;;;;;;;;;;;;;;;;;5141572;27;19916;-85
2022/07/08 00:28:38;;;;;;;;;;;;;;;;;;5160090;27;19915;-85
2022/07/08 00:31:04;;;;;;;;;;;;;;;;;;5160182;27;20259;-85
2022/07/08 00:33:29;;;;;;;;;;;;;;;;;;5141594;27;19919;-85
2022/07/08 00:35:55;;;;;;;;;;;;;;;;;;5159717;27;19915;-85
2022/07/08 00:38:20;;;;;;;;;;;;;;;;;;5159955;27;19915;-83
2022/07/08 00:40:45;;;;;;;;;;;;;;;;;;5159913;27;19922;-84
2022/07/08 00:43:24;;;;;;;;;;;;;;;;;;5159670;27;19916;-84
2022/07/08 00:45:49;;;;;;;;;;;;;;;;;;5160026;27;19919;-84
2022/07/08 00:48:15;;;;;;;;;;;;;;;;;;5159719;27;20345;-84
2022/07/08 00:50:40;;;;;;;;;;;;;;;;;;5159745;27;20289;-84
2022/07/08 00:53:06;;;;;;;;;;;;;;;;;;5159880;27;19915;-86
2022/07/08 00:55:31;;;;;;;;;;;;;;;;;;5160441;27;19970;-84
2022/07/08 00:57:57;;;;;;;;;;;;;;;;;;5162974;27;19957;-84
2022/07/08 01:00:22;;;;;;;;;;;;;;;;;;5162928;27;20402;-85
2022/07/08 01:02:48;;;;;;;;;;;;;;;;;;5177223;27;19946;-84
2022/07/08 01:05:14;;;;;;;;;;;;;;;;;;5182640;27;19903;-84
2022/07/08 01:07:41;;;;;;;;;;;;;;;;;;5185535;27;19927;-84
2022/07/08 01:10:07;;;;;;;;;;;;;;;;;;5163179;27;20294;-84
2022/07/08 01:12:32;;;;;;;;;;;;;;;;;;5164694;27;19922;-86
2022/07/08 01:14:58;;;;;;;;;;;;;;;;;;5180551;27;19921;-84
2022/07/08 01:17:39;;;;;;;;;;;;;;;;;;5178435;27;19915;-85
2022/07/08 01:20:04;;;;;;;;;;;;;;;;;;5179436;27;19911;-83
2022/07/08 01:22:31;;;;;;;;;;;;;;;;;;5159783;27;20320;-84
2022/07/08 01:24:56;;;;;;;;;;;;;;;;;;5158663;27;19911;-84
2022/07/08 01:27:22;;;;;;;;;;;;;;;;;;5170156;27;19998;-84
2022/07/08 01:29:47;;;;;;;;;;;;;;;;;;5138545;27;20357;-84
2022/07/08 01:32:12;;;;;;;;;;;;;;;;;;5156895;27;19919;-85
2022/07/08 01:34:38;;;;;;;;;;;;;;;;;;5157203;27;19915;-85
2022/07/08 01:37:03;;;;;;;;;;;;;;;;;;5157066;27;20285;-84
2022/07/08 01:39:29;;;;;;;;;;;;;;;;;;5159361;27;20369;-84
2022/07/08 01:41:54;;;;;;;;;;;;;;;;;;5179451;27;20277;-84
2022/07/08 01:44:20;;;;;;;;;;;;;;;;;;5160985;27;19926;-85
2022/07/08 01:46:46;;;;;;;;;;;;;;;;;;5139148;27;20066;-84
2022/07/08 01:49:16;;;;;;;;;;;;;;;;;;5157559;27;19961;-85
2022/07/08 01:51:41;;;;;;;;;;;;;;;;;;5157744;27;19915;-83
2022/07/08 01:54:07;;;;;;;;;;;;;;;;;;5157600;27;19922;-85
2022/07/08 01:56:32;;;;;;;;;;;;;;;;;;5150040;27;19921;-84
2022/07/08 01:58:59;;;;;;;;;;;;;;;;;;5178727;27;19915;-84
2022/07/08 02:01:24;;;;;;;;;;;;;;;;;;5159947;27;20327;-84
2022/07/08 02:03:50;;;;;;;;;;;;;;;;;;5141868;27;19988;-85
2022/07/08 02:06:15;;;;;;;;;;;;;;;;;;5157559;27;20381;-86
2022/07/08 02:08:41;;;;;;;;;;;;;;;;;;5157208;27;19911;-84
2022/07/08 02:13:50;;;;;;;;;;;;;;;;;;5157204;27;20006;-85
2022/07/08 02:16:16;;;;;;;;;;;;;;;;;;5157303;27;19962;-85
2022/07/08 02:18:41;;;;;;;;;;;;;;;;;;5159259;27;19919;-86
2022/07/08 02:21:07;;;;;;;;;;;;;;;;;;5147499;27;20453;-84
2022/07/08 02:23:32;;;;;;;;;;;;;;;;;;5138867;27;20002;-84
2022/07/08 02:25:58;;;;;;;;;;;;;;;;;;5138606;27;19940;-84
2022/07/08 02:28:23;;;;;;;;;;;;;;;;;;5157182;27;19922;-83
2022/07/08 02:30:49;;;;;;;;;;;;;;;;;;5157504;27;19942;-85
2022/07/08 02:33:14;;;;;;;;;;;;;;;;;;5157382;27;19915;-85
2022/07/08 02:35:41;;;;;;;;;;;;;;;;;;5156962;27;19926;-84
2022/07/08 02:49:03;;;;;;;;;;;;;;;;;;5154851;27;19916;-85
2022/07/08 02:51:29;;;;;;;;;;;;;;;;;;5154988;27;19924;-84
2022/07/08 02:53:55;;;;;;;;;;;;;;;;;;5154938;27;19915;-84
2022/07/08 02:56:20;;;;;;;;;;;;;;;;;;5154668;27;20450;-84
2022/07/08 02:58:46;;;;;;;;;;;;;;;;;;5154759;27;19915;-84
2022/07/08 03:01:12;;;;;;;;;;;;;;;;;;5154967;27;20014;-84
2022/07/08 03:03:37;;;;;;;;;;;;;;;;;;5155035;27;19921;-84
2022/07/08 03:06:04;;;;;;;;;;;;;;;;;;5156223;27;19984;-84
2022/07/08 03:08:30;;;;;;;;;;;;;;;;;;5159788;27;19938;-84
2022/07/08 03:10:55;;;;;;;;;;;;;;;;;;5174139;27;19916;-84
2022/07/08 03:13:20;;;;;;;;;;;;;;;;;;5176936;27;20598;-85
2022/07/08 03:15:46;;;;;;;;;;;;;;;;;;5206015;27;19915;-84
2022/07/08 03:18:11;;;;;;;;;;;;;;;;;;5159869;27;19915;-84
2022/07/08 03:20:38;;;;;;;;;;;;;;;;;;5154459;27;20401;-84
2022/07/08 03:23:04;;;;;;;;;;;;;;;;;;5133210;28;20002;-84
2022/07/08 03:25:29;;;;;;;;;;;;;;;;;;5132071;28;20401;-84
2022/07/08 03:27:55;;;;;;;;;;;;;;;;;;5133375;28;19912;-84
2022/07/08 03:30:20;;;;;;;;;;;;;;;;;;5130875;28;19915;-84
2022/07/08 03:32:45;;;;;;;;;;;;;;;;;;5132941;27;19941;-84
2022/07/08 03:35:11;;;;;;;;;;;;;;;;;;5131803;28;19941;-84
2022/07/08 03:37:40;;;;;;;;;;;;;;;;;;5136477;27;20367;-85
2022/07/08 03:42:50;;;;;;;;;;;;;;;;;;5132842;28;19918;-84
2022/07/08 03:45:15;;;;;;;;;;;;;;;;;;5132686;28;19916;-85
2022/07/08 03:47:41;;;;;;;;;;;;;;;;;;5132194;28;19924;-85
2022/07/08 03:50:08;;;;;;;;;;;;;;;;;;5117842;28;19922;-84
2022/07/08 03:52:33;;;;;;;;;;;;;;;;;;5118456;28;20010;-84
2022/07/08 03:54:59;;;;;;;;;;;;;;;;;;5118546;28;20025;-84
2022/07/08 03:57:24;;;;;;;;;;;;;;;;;;5117080;28;19920;-86
2022/07/08 03:59:50;;;;;;;;;;;;;;;;;;5118143;28;20010;-85
2022/07/08 04:02:16;;;;;;;;;;;;;;;;;;5133955;27;19916;-84
2022/07/08 04:04:41;;;;;;;;;;;;;;;;;;5138723;27;20060;-85
2022/07/08 04:07:06;;;;;;;;;;;;;;;;;;5139750;27;19919;-84
2022/07/08 04:09:32;;;;;;;;;;;;;;;;;;5138965;27;19923;-83
2022/07/08 04:11:57;;;;;;;;;;;;;;;;;;5139264;27;19915;-83
2022/07/08 04:14:23;;;;;;;;;;;;;;;;;;5139407;27;19915;-85
2022/07/08 04:16:48;;;;;;;;;;;;;;;;;;5139400;27;19938;-84
2022/07/08 04:19:14;;;;;;;;;;;;;;;;;;5139723;27;19937;-84
2022/07/08 04:21:40;;;;;;;;;;;;;;;;;;5139257;27;19962;-83
2022/07/08 04:24:05;;;;;;;;;;;;;;;;;;5130085;27;20282;-84
2022/07/08 04:26:31;;;;;;;;;;;;;;;;;;5114661;28;20377;-83
2022/07/08 04:28:57;;;;;;;;;;;;;;;;;;5128335;28;19955;-83
2022/07/08 04:31:23;;;;;;;;;;;;;;;;;;5125216;28;20445;-84
2022/07/08 04:33:48;;;;;;;;;;;;;;;;;;5128786;28;19916;-83
2022/07/08 04:36:14;;;;;;;;;;;;;;;;;;5124379;28;19961;-83
2022/07/08 04:38:41;;;;;;;;;;;;;;;;;;5119744;28;19915;-84
2022/07/08 04:41:06;;;;;;;;;;;;;;;;;;5119894;28;19924;-83
2022/07/08 04:43:32;;;;;;;;;;;;;;;;;;5119518;28;19915;-85
2022/07/08 04:45:57;;;;;;;;;;;;;;;;;;5119649;27;19920;-88
2022/07/08 04:48:23;;;;;;;;;;;;;;;;;;5137856;27;19919;-91
2022/07/08 04:50:48;;;;;;;;;;;;;;;;;;5125352;27;19915;-86
2022/07/08 04:53:13;;;;;;;;;;;;;;;;;;5105468;28;19962;-87
2022/07/08 04:55:39;;;;;;;;;;;;;;;;;;5095973;28;19916;-87
2022/07/08 04:58:05;;;;;;;;;;;;;;;;;;5128319;27;19916;-87
2022/07/08 05:00:31;;;;;;;;;;;;;;;;;;5093408;28;19977;-87
2022/07/08 05:02:57;;;;;;;;;;;;;;;;;;5097293;27;19912;-88
2022/07/08 05:05:23;;;;;;;;;;;;;;;;;;5119282;27;19922;-88
2022/07/08 05:07:48;;;;;;;;;;;;;;;;;;5135812;27;19911;-92
2022/07/08 05:10:15;;;;;;;;;;;;;;;;;;5120222;27;20003;-87
2022/07/08 05:12:41;;;;;;;;;;;;;;;;;;5117106;27;19922;-93
2022/07/08 05:15:06;;;;;;;;;;;;;;;;;;5136317;27;20002;-87
2022/07/08 05:17:32;;;;;;;;;;;;;;;;;;5136129;27;19916;-86
2022/07/08 05:19:57;;;;;;;;;;;;;;;;;;5136965;27;20347;-84
2022/07/08 05:22:22;;;;;;;;;;;;;;;;;;5136106;27;19919;-87
2022/07/08 05:24:48;;;;;;;;;;;;;;;;;;5137276;27;20048;-85
2022/07/08 05:27:13;;;;;;;;;;;;;;;;;;5137278;27;19951;-87
2022/07/08 05:29:39;;;;;;;;;;;;;;;;;;5119507;27;19965;-87
2022/07/08 05:32:04;;;;;;;;;;;;;;;;;;5115697;28;20374;-87
2022/07/08 05:34:29;;;;;;;;;;;;;;;;;;5116563;28;19930;-91
2022/07/08 05:36:55;;;;;;;;;;;;;;;;;;5117161;28;19930;-87
2022/07/08 05:39:20;;;;;;;;;;;;;;;;;;5116677;28;19923;-87
2022/07/08 05:41:46;;;;;;;;;;;;;;;;;;5117737;28;19916;-86
2022/07/08 05:44:11;;;;;;;;;;;;;;;;;;5117870;28;20309;-94
2022/07/08 05:46:37;;;;;;;;;;;;;;;;;;5103783;28;19920;-89
2022/07/08 05:49:02;;;;;;;;;;;;;;;;;;5094625;28;19921;-87
2022/07/08 05:51:27;;;;;;;;;;;;;;;;;;5127536;27;19920;-87
2022/07/08 05:53:55;;;;;;;;;;;;;;;;;;5094593;28;19963;-91
2022/07/08 05:56:21;;;;;;;;;;;;;;;;;;5130139;27;19916;-88
2022/07/08 05:58:46;;;;;;;;;;;;;;;;;;5113939;28;19926;-91
2022/07/08 06:01:11;;;;;;;;;;;;;;;;;;5135525;27;20232;-92
2022/07/08 06:03:37;;;;;;;;;;;;;;;;;;5120429;27;19922;-92
2022/07/08 06:06:02;;;;;;;;;;;;;;;;;;5114746;28;19927;-89
2022/07/08 06:08:28;;;;;;;;;;;;;;;;;;5114625;28;19923;-88
2022/07/08 06:10:54;;;;;;;;;;;;;;;;;;5114782;28;19994;-87
2022/07/08 06:13:19;;;;;;;;;;;;;;;;;;5114430;28;19930;-89
2022/07/08 06:15:44;;;;;;;;;;;;;;;;;;5114537;28;20366;-88
2022/07/08 06:18:10;;;;;;;;;;;;;;;;;;5102337;28;19928;-92
2022/07/08 06:20:36;;;;;;;;;;;;;;;;;;5114661;28;19923;-88
2022/07/08 06:23:01;;;;;;;;;;;;;;;;;;5110445;28;19912;-88
2022/07/08 06:25:27;;;;;;;;;;;;;;;;;;5113163;28;19927;-88
2022/07/08 06:27:52;;;;;;;;;;;;;;;;;;5114489;28;19961;-88
2022/07/08 06:30:17;;;;;;;;;;;;;;;;;;5113688;28;19912;-88
2022/07/08 06:32:43;;;;;;;;;;;;;;;;;;5112626;28;19920;-90
2022/07/08 06:35:08;;;;;;;;;;;;;;;;;;5125192;28;19919;-90
2022/07/08 06:37:34;;;;;;;;;;;;;;;;;;5126058;27;20401;-89
2022/07/08 06:40:00;;;;;;;;;;;;;;;;;;5117786;28;19915;-88
2022/07/08 06:42:25;;;;;;;;;;;;;;;;;;5114337;27;19926;-92
2022/07/08 06:44:51;;;;;;;;;;;;;;;;;;5102651;28;20470;-88
2022/07/08 06:47:16;;;;;;;;;;;;;;;;;;5106535;28;20065;-88
2022/07/08 06:49:41;;;;;;;;;;;;;;;;;;5112329;28;20314;-88
2022/07/08 06:52:07;;;;;;;;;;;;;;;;;;5107586;28;20355;-89
2022/07/08 06:54:35;;;;;;;;;;;;;;;;;;5109685;28;19920;-89
2022/07/08 06:57:01;;;;;;;;;;;;;;;;;;5113763;28;19966;-88
2022/07/08 06:59:26;;;;;;;;;;;;;;;;;;5124164;28;19971;-88
2022/07/08 07:01:52;;;;;;;;;;;;;;;;;;5121914;28;19919;-87
2022/07/08 07:04:18;;;;;;;;;;;;;;;;;;5122124;27;20011;-88
2022/07/08 07:06:44;;;;;;;;;;;;;;;;;;5113610;28;20393;-88
2022/07/08 07:09:09;;;;;;;;;;;;;;;;;;5125226;28;19916;-87
2022/07/08 07:11:35;;;;;;;;;;;;;;;;;;5133953;27;19919;-88
2022/07/08 07:14:01;;;;;;;;;;;;;;;;;;5133929;27;19968;-88
2022/07/08 07:16:27;;;;;;;;;;;;;;;;;;5133616;27;19964;-88
2022/07/08 07:18:52;;;;;;;;;;;;;;;;;;5167272;27;20320;-88
2022/07/08 07:21:18;;;;;;;;;;;;;;;;;;5133772;27;19923;-88
2022/07/08 07:23:43;;;;;;;;;;;;;;;;;;5125914;27;20290;-89
2022/07/08 07:26:09;;;;;;;;;;;;;;;;;;5123877;27;19915;-88
2022/07/08 07:28:34;;;;;;;;;;;;;;;;;;5137705;27;19915;-88
2022/07/08 07:31:00;;;;;;;;;;;;;;;;;;5133849;27;19916;-89
2022/07/08 07:33:25;;;;;;;;;;;;;;;;;;5116963;28;19923;-88
2022/07/08 07:35:51;;;;;;;;;;;;;;;;;;5116943;28;20302;-88
2022/07/08 07:38:16;;;;;;;;;;;;;;;;;;5116825;28;19920;-89
2022/07/08 07:40:42;;;;;;;;;;;;;;;;;;5116776;28;19955;-87
2022/07/08 07:43:07;;;;;;;;;;;;;;;;;;5117456;27;20053;-87
2022/07/08 07:45:32;;;;;;;;;;;;;;;;;;5115304;27;19920;-88
2022/07/08 07:47:58;;;;;;;;;;;;;;;;;;5101380;28;20394;-87
2022/07/08 07:50:23;;;;;;;;;;;;;;;;;;5097266;28;20007;-88
2022/07/08 07:52:49;;;;;;;;;;;;;;;;;;5097212;28;19922;-87
2022/07/08 07:55:14;;;;;;;;;;;;;;;;;;5095722;28;19923;-90
2022/07/08 07:57:40;;;;;;;;;;;;;;;;;;5097815;28;19923;-87
2022/07/08 08:00:07;;;;;;;;;;;;;;;;;;5130971;27;19907;-88
2022/07/08 08:02:32;;;;;;;;;;;;;;;;;;5131721;27;19931;-88
2022/07/08 08:04:58;;;;;;;;;;;;;;;;;;5131582;27;19924;-87
2022/07/08 08:07:23;;;;;;;;;;;;;;;;;;5125054;28;19920;-89
2022/07/08 08:09:49;;;;;;;;;;;;;;;;;;5122086;28;19941;-87
2022/07/08 08:12:14;;;;;;;;;;;;;;;;;;5116632;28;20360;-86
2022/07/08 08:14:39;;;;;;;;;;;;;;;;;;5116648;28;19919;-86
2022/07/08 08:17:05;;;;;;;;;;;;;;;;;;5118481;27;19920;-89
2022/07/08 08:19:31;;;;;;;;;;;;;;;;;;5119771;27;19916;-87
2022/07/08 08:21:57;;;;;;;;;;;;;;;;;;5120742;27;20305;-89
2022/07/08 08:24:22;;;;;;;;;;;;;;;;;;5126940;27;19930;-87
2022/07/08 08:26:48;;;;;;;;;;;;;;;;;;5113106;27;19929;-87
2022/07/08 08:29:13;;;;;;;;;;;;;;;;;;5115925;28;19912;-86
2022/07/08 08:31:39;;;;;;;;;;;;;;;;;;5114563;28;19916;-86
2022/07/08 08:34:04;;;;;;;;;;;;;;;;;;5115631;28;19916;-87
2022/07/08 08:36:30;;;;;;;;;;;;;;;;;;5115642;28;19923;-87
2022/07/08 08:38:55;;;;;;;;;;;;;;;;;;5115782;28;19916;-87
2022/07/08 08:41:22;;;;;;;;;;;;;;;;;;5115772;28;19919;-87
2022/07/08 08:43:47;;;;;;;;;;;;;;;;;;5115666;28;20294;-87
2022/07/08 08:46:14;;;;;;;;;;;;;;;;;;5115422;28;19915;-89
2022/07/08 08:48:39;;;;;;;;;;;;;;;;;;5115333;28;19919;-89
2022/07/08 08:51:08;;;;;;;;;;;;;;;;;;5115603;28;19915;-87
2022/07/08 08:53:44;;;;;;;;;;;;;;;;;;5115500;28;19918;-87
2022/07/08 08:56:10;;;;;;;;;;;;;;;;;;5115433;28;20352;-89
2022/07/08 08:58:37;;;;;;;;;;;;;;;;;;5114005;28;19968;-87
2022/07/08 09:01:02;;;;;;;;;;;;;;;;;;5115311;28;19924;-87
2022/07/08 09:03:28;;;;;;;;;;;;;;;;;;5115295;28;19927;-87
2022/07/08 09:05:53;;;;;;;;;;;;;;;;;;5115268;28;19916;-87
2022/07/08 09:08:19;;;;;;;;;;;;;;;;;;5114855;28;19960;-86
2022/07/08 09:10:44;;;;;;;;;;;;;;;;;;5114525;28;19916;-85
2022/07/08 09:13:10;;;;;;;;;;;;;;;;;;5112844;28;19915;-85
2022/07/08 09:15:37;;;;;;;;;;;;;;;;;;5112515;28;20018;-86
2022/07/08 09:18:07;;;;;;;;;;;;;;;;;;5114070;28;19922;-87
2022/07/08 09:20:39;;;;;;;;;;;;;;;;;;5113675;28;19938;-86
2022/07/08 09:23:08;;;;;;;;;;;;;;;;;;5113696;28;19939;-87
2022/07/08 09:25:33;;;;;;;;;;;;;;;;;;5114769;28;19919;-86
2022/07/08 09:27:59;;;;;;;;;;;;;;;;;;5147825;27;19923;-86
2022/07/08 09:30:31;;;;;;;;;;;;;;;;;;5114740;28;19924;-87
2022/07/08 09:32:58;;;;;;;;;;;;;;;;;;5114746;28;20438;-85
2022/07/08 09:35:33;;;;;;;;;;;;;;;;;;5113403;28;19916;-87
2022/07/08 09:38:03;;;;;;;;;;;;;;;;;;5113229;28;19916;-86
2022/07/08 09:40:28;;;;;;;;;;;;;;;;;;5114698;28;19916;-85
2022/07/08 09:42:54;;;;;;;;;;;;;;;;;;5114595;28;20018;-86
2022/07/08 09:45:21;;;;;;;;;;;;;;;;;;5113989;27;20006;-87
2022/07/08 09:47:46;;;;;;;;;;;;;;;;;;5113856;28;19923;-86
2022/07/08 09:50:14;;;;;;;;;;;;;;;;;;5114311;28;19961;-86
2022/07/08 09:52:40;;;;;;;;;;;;;;;;;;5114479;28;19912;-85
2022/07/08 09:55:05;;;;;;;;;;;;;;;;;;5114720;28;19923;-84
2022/07/08 09:57:31;;;;;;;;;;;;;;;;;;5117548;28;19924;-84
2022/07/08 09:59:56;;;;;;;;;;;;;;;;;;5114761;28;19919;-84
2022/07/08 10:02:23;;;;;;;;;;;;;;;;;;5115000;27;20033;-84
2022/07/08 10:04:49;;;;;;;;;;;;;;;;;;5114849;28;19937;-85
2022/07/08 10:07:15;;;;;;;;;;;;;;;;;;5114710;28;19923;-86
2022/07/08 10:09:40;;;;;;;;;;;;;;;;;;5114982;28;20374;-86
2022/07/08 10:12:06;;;;;;;;;;;;;;;;;;5127560;27;20290;-86
2022/07/08 10:14:32;;;;;;;;;;;;;;;;;;5113249;27;19930;-84
2022/07/08 10:16:58;;;;;;;;;;;;;;;;;;5128432;27;19919;-84
2022/07/08 10:19:29;;;;;;;;;;;;;;;;;;5123232;27;19960;-82
2022/07/08 10:21:55;;;;;;;;;;;;;;;;;;5136260;27;19916;-83
2022/07/08 10:24:24;;;;;;;;;;;;;;;;;;5169140;27;20011;-84
2022/07/08 10:26:50;;;;;;;;;;;;;;;;;;5135760;27;19916;-83
2022/07/08 10:29:15;;;;;;;;;;;;;;;;;;5135636;27;20067;-83
2022/07/08 10:31:42;;;;;;;;;;;;;;;;;;5122532;27;19940;-83
2022/07/08 10:34:08;;;;;;;;;;;;;;;;;;5114826;28;19963;-84
2022/07/08 10:36:53;;;;;;;;;;;;;;;;;;5114531;28;19977;-82
2022/07/08 10:39:25;;;;;;;;;;;;;;;;;;5114500;28;19916;-81
2022/07/08 10:41:57;;;;;;;;;;;;;;;;;;5114651;28;20367;-82
2022/07/08 10:44:41;;;;;;;;;;;;;;;;;;5114470;28;19916;-81
2022/07/08 10:47:11;;;;;;;;;;;;;;;;;;5112922;28;19963;-81
2022/07/08 10:49:40;;;;;;;;;;;;;;;;;;5113218;28;19922;-82
2022/07/08 10:52:05;;;;;;;;;;;;;;;;;;5114375;28;19941;-83
2022/07/08 10:54:36;;;;;;;;;;;;;;;;;;5114313;28;19923;-83
2022/07/08 10:57:02;;;;;;;;;;;;;;;;;;5117399;28;19923;-82
2022/07/08 10:59:29;;;;;;;;;;;;;;;;;;5125311;27;20068;-82
2022/07/08 11:01:54;;;;;;;;;;;;;;;;;;5123029;27;19918;-83
2022/07/08 11:04:26;;;;;;;;;;;;;;;;;;5123953;27;19915;-84
2022/07/08 11:06:51;;;;;;;;;;;;;;;;;;5097285;28;20122;-83
2022/07/08 11:09:20;;;;;;;;;;;;;;;;;;5119785;27;19926;-83
2022/07/08 11:11:45;;;;;;;;;;;;;;;;;;5138816;27;19965;-83
2022/07/08 11:14:13;;;;;;;;;;;;;;;;;;5138542;27;20336;-83
2022/07/08 11:16:38;;;;;;;;;;;;;;;;;;5138249;27;19915;-82
2022/07/08 11:19:06;;;;;;;;;;;;;;;;;;5138606;27;19915;-82
2022/07/08 11:21:32;;;;;;;;;;;;;;;;;;5171858;27;19980;-83
2022/07/08 11:23:58;;;;;;;;;;;;;;;;;;5171834;27;19924;-84
2022/07/08 11:26:23;;;;;;;;;;;;;;;;;;5171700;27;19955;-83
2022/07/08 11:28:49;;;;;;;;;;;;;;;;;;5138335;27;20005;-83
2022/07/08 11:31:33;;;;;;;;;;;;;;;;;;5131129;27;19920;-83
2022/07/08 11:33:59;;;;;;;;;;;;;;;;;;5128514;27;19923;-83
2022/07/08 11:36:24;;;;;;;;;;;;;;;;;;5122743;27;20662;-83
2022/07/08 11:38:50;;;;;;;;;;;;;;;;;;5162455;27;20371;-83
2022/07/08 11:41:17;;;;;;;;;;;;;;;;;;5131457;27;19920;-83
2022/07/08 11:43:43;;;;;;;;;;;;;;;;;;5128606;27;20389;-83
2022/07/08 11:46:35;;;;;;;;;;;;;;;;;;5135585;27;19924;-83
2022/07/08 11:49:04;;;;;;;;;;;;;;;;;;5126130;27;20412;-85
2022/07/08 11:51:29;;;;;;;;;;;;;;;;;;5126331;27;20030;-84
2022/07/08 11:53:55;;;;;;;;;;;;;;;;;;5121574;27;19963;-84
2022/07/08 11:56:21;;;;;;;;;;;;;;;;;;5125634;27;19915;-84
2022/07/08 11:58:47;;;;;;;;;;;;;;;;;;5138113;27;19915;-85
2022/07/08 12:01:13;;;;;;;;;;;;;;;;;;5137951;27;19960;-84
2022/07/08 12:03:39;;;;;;;;;;;;;;;;;;5138045;27;19968;-86
2022/07/08 12:06:05;;;;;;;;;;;;;;;;;;5137993;27;19920;-83
2022/07/08 12:08:32;;;;;;;;;;;;;;;;;;5138424;27;19927;-84
2022/07/08 12:11:11;;;;;;;;;;;;;;;;;;5137715;27;20019;-84
2022/07/08 12:13:43;;;;;;;;;;;;;;;;;;5137062;27;19915;-84
2022/07/08 12:16:08;;;;;;;;;;;;;;;;;;5161370;27;20379;-85
2022/07/08 12:18:41;;;;;;;;;;;;;;;;;;5122197;28;19916;-84
2022/07/08 12:21:16;;;;;;;;;;;;;;;;;;5133867;28;19916;-84
2022/07/08 12:23:44;;;;;;;;;;;;;;;;;;5120930;28;19930;-85
2022/07/08 12:26:10;;;;;;;;;;;;;;;;;;5106216;28;19920;-83
2022/07/08 12:28:35;;;;;;;;;;;;;;;;;;5107150;28;19961;-82
2022/07/08 12:31:01;;;;;;;;;;;;;;;;;;5107704;28;20410;-83
2022/07/08 12:33:32;;;;;;;;;;;;;;;;;;5107239;27;20400;-84
2022/07/08 12:35:57;;;;;;;;;;;;;;;;;;5113186;28;19931;-83
2022/07/08 12:38:23;;;;;;;;;;;;;;;;;;5137141;27;19919;-83
2022/07/08 12:40:49;;;;;;;;;;;;;;;;;;5136980;27;19916;-82
2022/07/08 12:43:15;;;;;;;;;;;;;;;;;;5122374;27;20370;-84
2022/07/08 12:45:40;;;;;;;;;;;;;;;;;;5116393;28;19923;-82
2022/07/08 12:48:06;;;;;;;;;;;;;;;;;;5115819;28;19920;-83
2022/07/08 12:50:32;;;;;;;;;;;;;;;;;;5114965;28;19926;-83
2022/07/08 12:52:58;;;;;;;;;;;;;;;;;;5116601;28;19968;-83
2022/07/08 12:55:23;;;;;;;;;;;;;;;;;;5116555;27;19919;-84
2022/07/08 12:57:49;;;;;;;;;;;;;;;;;;5122417;27;20365;-83
2022/07/08 13:00:14;;;;;;;;;;;;;;;;;;5132314;27;19976;-84
2022/07/08 13:02:41;;;;;;;;;;;;;;;;;;5127167;27;19911;-84
2022/07/08 13:05:06;;;;;;;;;;;;;;;;;;5136629;27;19915;-82
2022/07/08 13:07:33;;;;;;;;;;;;;;;;;;5136417;27;20392;-83
2022/07/08 13:09:58;;;;;;;;;;;;;;;;;;5128219;27;20308;-82
2022/07/08 13:12:24;;;;;;;;;;;;;;;;;;5126233;27;19919;-83
2022/07/08 13:14:50;;;;;;;;;;;;;;;;;;5131520;27;19915;-83
2022/07/08 13:17:15;;;;;;;;;;;;;;;;;;5135936;27;20378;-83
2022/07/08 13:19:41;;;;;;;;;;;;;;;;;;5136723;27;20010;-84
2022/07/08 13:22:08;;;;;;;;;;;;;;;;;;5119359;27;20294;-83
2022/07/08 13:24:34;;;;;;;;;;;;;;;;;;5115935;28;20308;-83
2022/07/08 13:26:59;;;;;;;;;;;;;;;;;;5115775;28;20366;-82
2022/07/08 13:29:25;;;;;;;;;;;;;;;;;;5115302;28;19963;-83
2022/07/08 13:31:50;;;;;;;;;;;;;;;;;;5115512;28;19919;-83
2022/07/08 13:34:19;;;;;;;;;;;;;;;;;;5115341;28;20010;-84
2022/07/08 13:36:45;;;;;;;;;;;;;;;;;;5116209;27;20298;-84
2022/07/08 13:39:10;;;;;;;;;;;;;;;;;;5120864;27;19926;-83
2022/07/08 13:41:35;;;;;;;;;;;;;;;;;;5135833;27;19915;-84
2022/07/08 13:44:01;;;;;;;;;;;;;;;;;;5119534;27;19932;-83
2022/07/08 13:46:27;;;;;;;;;;;;;;;;;;5123928;27;19924;-84
2022/07/08 13:48:52;;;;;;;;;;;;;;;;;;5123383;27;20005;-84
2022/07/08 13:51:18;;;;;;;;;;;;;;;;;;5169012;27;20366;-84
2022/07/08 13:53:43;;;;;;;;;;;;;;;;;;5135997;27;19964;-83
2022/07/08 13:56:09;;;;;;;;;;;;;;;;;;5135941;27;20393;-84
2022/07/08 13:58:34;;;;;;;;;;;;;;;;;;5135970;27;19958;-83
2022/07/08 14:01:00;;;;;;;;;;;;;;;;;;5136458;27;19922;-83
2022/07/08 14:03:26;;;;;;;;;;;;;;;;;;5117276;27;19973;-85
2022/07/08 14:05:51;;;;;;;;;;;;;;;;;;5110446;28;19927;-84
2022/07/08 14:08:16;;;;;;;;;;;;;;;;;;5133685;27;19915;-84
2022/07/08 14:10:42;;;;;;;;;;;;;;;;;;5134582;27;19915;-83
2022/07/08 14:13:07;;;;;;;;;;;;;;;;;;5136195;27;20328;-85
2022/07/08 14:15:33;;;;;;;;;;;;;;;;;;5131716;27;19916;-83
2022/07/08 14:17:59;;;;;;;;;;;;;;;;;;5115689;28;19942;-83
2022/07/08 14:20:25;;;;;;;;;;;;;;;;;;5117138;28;19928;-84
2022/07/08 14:22:50;;;;;;;;;;;;;;;;;;5114982;28;20282;-83
2022/07/08 14:25:17;;;;;;;;;;;;;;;;;;5128380;27;20006;-83
2022/07/08 14:27:43;;;;;;;;;;;;;;;;;;5135557;27;19957;-84
2022/07/08 14:30:08;;;;;;;;;;;;;;;;;;5135723;27;19915;-84
2022/07/08 14:32:34;;;;;;;;;;;;;;;;;;5168444;27;19916;-84
2022/07/08 14:34:59;;;;;;;;;;;;;;;;;;5169019;27;20003;-86
2022/07/08 14:37:25;;;;;;;;;;;;;;;;;;5135232;27;20396;-84
2022/07/08 14:39:50;;;;;;;;;;;;;;;;;;5135077;27;20014;-84
2022/07/08 14:42:16;;;;;;;;;;;;;;;;;;5124715;27;19911;-83
2022/07/08 14:44:41;;;;;;;;;;;;;;;;;;5132125;28;19924;-83
2022/07/08 14:47:07;;;;;;;;;;;;;;;;;;5135187;27;20023;-84
2022/07/08 14:49:33;;;;;;;;;;;;;;;;;;5120530;28;20256;-85
2022/07/08 14:51:59;;;;;;;;;;;;;;;;;;5114957;28;19915;-85
2022/07/08 14:54:25;;;;;;;;;;;;;;;;;;5114861;28;20378;-84
2022/07/08 14:56:50;;;;;;;;;;;;;;;;;;5114778;28;20325;-84
2022/07/08 14:59:15;;;;;;;;;;;;;;;;;;5115045;28;19931;-84
2022/07/08 15:01:41;;;;;;;;;;;;;;;;;;5114815;28;19927;-83
2022/07/08 15:04:06;;;;;;;;;;;;;;;;;;5115039;28;19915;-84
2022/07/08 15:06:32;;;;;;;;;;;;;;;;;;5115235;28;19926;-85
2022/07/08 15:08:57;;;;;;;;;;;;;;;;;;5114820;28;19919;-84
2022/07/08 15:11:23;;;;;;;;;;;;;;;;;;5115220;28;19962;-87
2022/07/08 15:13:48;;;;;;;;;;;;;;;;;;5116676;28;20309;-84
2022/07/08 15:16:14;;;;;;;;;;;;;;;;;;5113496;28;19919;-85
2022/07/08 15:18:39;;;;;;;;;;;;;;;;;;5115115;28;19915;-84
2022/07/08 15:21:05;;;;;;;;;;;;;;;;;;5117044;28;20007;-85
2022/07/08 15:23:30;;;;;;;;;;;;;;;;;;5115509;28;19916;-85
2022/07/08 15:25:57;;;;;;;;;;;;;;;;;;5119176;28;19916;-85
2022/07/08 15:28:22;;;;;;;;;;;;;;;;;;5118774;28;19916;-83
2022/07/08 15:30:47;;;;;;;;;;;;;;;;;;5118005;28;19918;-83
2022/07/08 15:33:13;;;;;;;;;;;;;;;;;;5113202;28;19915;-83
2022/07/08 15:35:38;;;;;;;;;;;;;;;;;;5108351;28;19973;-85
2022/07/08 15:38:04;;;;;;;;;;;;;;;;;;5099886;28;20403;-85
2022/07/08 15:40:30;;;;;;;;;;;;;;;;;;5125567;28;20320;-84
2022/07/08 15:42:56;;;;;;;;;;;;;;;;;;5115751;28;20435;-85
2022/07/08 15:45:26;;;;;;;;;;;;;;;;;;5118286;28;19930;-84
2022/07/08 15:47:52;;;;;;;;;;;;;;;;;;5119454;28;19924;-84
2022/07/08 15:50:18;;;;;;;;;;;;;;;;;;5119594;28;19924;-84
2022/07/08 15:52:45;;;;;;;;;;;;;;;;;;5119187;28;19971;-82
2022/07/08 15:55:10;;;;;;;;;;;;;;;;;;5119489;28;19920;-83
2022/07/08 15:57:38;;;;;;;;;;;;;;;;;;5118114;28;19916;-84
2022/07/08 16:00:04;;;;;;;;;;;;;;;;;;5119046;28;19916;-85
2022/07/08 16:02:29;;;;;;;;;;;;;;;;;;5118322;28;19923;-84
2022/07/08 16:04:55;;;;;;;;;;;;;;;;;;5118717;28;20282;-83
2022/07/08 16:07:20;;;;;;;;;;;;;;;;;;5119880;28;19930;-84
2022/07/08 16:09:46;;;;;;;;;;;;;;;;;;5118268;28;19923;-84
2022/07/08 16:12:11;;;;;;;;;;;;;;;;;;5121232;27;20015;-83
2022/07/08 16:14:37;;;;;;;;;;;;;;;;;;5129961;27;19920;-85
2022/07/08 16:17:02;;;;;;;;;;;;;;;;;;5136331;27;20328;-84
2022/07/08 16:19:28;;;;;;;;;;;;;;;;;;5137476;27;20372;-85
2022/07/08 16:21:53;;;;;;;;;;;;;;;;;;5137595;27;19961;-84
2022/07/08 16:24:19;;;;;;;;;;;;;;;;;;5136906;27;19940;-85
2022/07/08 16:26:44;;;;;;;;;;;;;;;;;;5137521;27;20313;-84
2022/07/08 16:29:09;;;;;;;;;;;;;;;;;;5139054;27;20063;-83
2022/07/08 16:31:35;;;;;;;;;;;;;;;;;;5138897;27;19916;-84
2022/07/08 16:34:00;;;;;;;;;;;;;;;;;;5139247;27;19937;-83
2022/07/08 16:36:27;;;;;;;;;;;;;;;;;;5139085;27;20286;-85
2022/07/08 16:38:53;;;;;;;;;;;;;;;;;;5110936;27;19919;-84
2022/07/08 16:41:19;;;;;;;;;;;;;;;;;;5118333;28;19916;-84
2022/07/08 16:43:44;;;;;;;;;;;;;;;;;;5119461;28;19915;-84
2022/07/08 16:46:10;;;;;;;;;;;;;;;;;;5120084;28;19961;-84
2022/07/08 16:48:35;;;;;;;;;;;;;;;;;;5121081;28;19965;-85
2022/07/08 16:51:01;;;;;;;;;;;;;;;;;;5132296;28;20020;-84
2022/07/08 16:53:26;;;;;;;;;;;;;;;;;;5128201;28;19916;-84
2022/07/08 16:55:52;;;;;;;;;;;;;;;;;;5129982;28;20302;-84